Time;durP1;ratioP1;P1;durP2;ratioP2;P2;SDS_P1;SDS_P2;PMS_P1;PMS_P2;Temp;Humidity;BMP_temperature;BMP_pressure;BME280_temperature;BME280_humidity;BME280_pressure;Samples;Min_cycle;Max_cycle;Signal;HPM_P1;HPM_P2
2021/05/05 00:01:18;0.00;0.00;0.62;0.00;0.00;0.62;1.60;1.07;;;24.00;22.00;;;;;;2268902;61;20441;-66
2021/05/05 00:03:45;0.00;0.00;0.62;0.00;0.00;0.62;1.33;0.90;;;24.00;22.00;;;;;;2269222;61;20408;-65
2021/05/05 00:06:13;0.00;0.00;0.62;0.00;0.00;0.62;1.73;1.10;;;24.00;22.00;;;;;;2269918;61;20361;-66
2021/05/05 00:08:40;0.00;0.00;0.62;0.00;0.00;0.62;1.40;1.00;;;24.00;22.00;;;;;;2269637;61;20364;-66
2021/05/05 00:11:08;0.00;0.00;0.62;0.00;0.00;0.62;1.70;1.00;;;24.00;22.00;;;;;;2269746;61;20484;-66
2021/05/05 00:13:36;0.00;0.00;0.62;0.00;0.00;0.62;2.03;1.20;;;24.00;22.00;;;;;;2269866;61;20358;-66
2021/05/05 00:16:05;0.00;0.00;0.62;0.00;0.00;0.62;1.83;1.00;;;23.90;21.90;;;;;;2269691;61;20687;-66
2021/05/05 00:18:32;0.00;0.00;0.62;0.00;0.00;0.62;1.30;1.00;;;23.90;21.90;;;;;;2269955;61;20721;-66
2021/05/05 00:20:59;0.00;0.00;0.62;0.00;0.00;0.62;1.40;1.27;;;23.90;21.90;;;;;;2269827;61;20378;-65
2021/05/05 00:23:25;0.00;0.00;0.62;0.00;0.00;0.62;1.73;1.33;;;23.90;22.00;;;;;;2269517;61;20573;-66
2021/05/05 00:25:52;0.00;0.00;0.62;0.00;0.00;0.62;1.70;1.20;;;23.90;22.00;;;;;;2270001;61;20599;-66
2021/05/05 00:28:19;0.00;0.00;0.62;0.00;0.00;0.62;1.60;1.20;;;23.90;21.90;;;;;;2269923;61;20349;-65
2021/05/05 00:30:46;0.00;0.00;0.62;0.00;0.00;0.62;3.80;1.37;;;23.90;21.90;;;;;;2269346;61;20368;-66
2021/05/05 00:33:13;0.00;0.00;0.62;0.00;0.00;0.62;2.53;0.90;;;23.90;21.90;;;;;;2269692;61;20394;-65
2021/05/05 00:35:40;0.00;0.00;0.62;0.00;0.00;0.62;1.27;1.00;;;23.90;21.90;;;;;;2269366;61;20488;-66
2021/05/05 00:38:09;0.00;0.00;0.62;0.00;0.00;0.62;1.90;1.10;;;23.80;21.80;;;;;;2269691;61;20350;-66
2021/05/05 00:40:36;0.00;0.00;0.62;0.00;0.00;0.62;1.70;1.03;;;23.80;21.80;;;;;;2269712;61;20354;-65
2021/05/05 00:43:03;0.00;0.00;0.62;0.00;0.00;0.62;1.67;1.20;;;23.80;22.00;;;;;;2269936;61;20385;-65
2021/05/05 00:45:30;0.00;0.00;0.62;0.00;0.00;0.62;2.40;1.57;;;23.80;21.90;;;;;;2269599;61;20702;-64
2021/05/05 00:47:57;0.00;0.00;0.62;0.00;0.00;0.62;1.53;1.10;;;23.80;21.80;;;;;;2269927;61;20453;-65
2021/05/05 00:50:24;0.00;0.00;0.62;0.00;0.00;0.62;2.80;1.17;;;23.80;21.80;;;;;;2269777;61;20421;-65
2021/05/05 00:52:51;0.00;0.00;0.62;0.00;0.00;0.62;2.90;1.90;;;23.80;21.80;;;;;;2269331;61;20374;-65
2021/05/05 00:55:17;0.00;0.00;0.62;0.00;0.00;0.62;1.70;1.10;;;23.80;21.80;;;;;;2269266;61;20420;-65
2021/05/05 00:57:49;0.00;0.00;0.62;0.00;0.00;0.62;3.90;1.40;;;23.70;21.70;;;;;;2269804;61;20353;-65
2021/05/05 01:00:20;0.00;0.00;0.62;0.00;0.00;0.62;1.40;1.20;;;23.70;21.70;;;;;;2269171;61;20425;-65
2021/05/05 01:02:47;0.00;0.00;0.62;0.00;0.00;0.62;1.70;1.20;;;23.70;21.80;;;;;;2269549;61;20353;-65
2021/05/05 01:05:15;0.00;0.00;0.62;0.00;0.00;0.62;1.60;1.00;;;23.70;21.80;;;;;;2269268;61;20373;-65
2021/05/05 01:07:47;0.00;0.00;0.62;0.00;0.00;0.62;1.50;1.10;;;23.70;21.70;;;;;;2269738;61;20679;-65
2021/05/05 01:10:15;0.00;0.00;0.62;0.00;0.00;0.62;1.30;1.00;;;23.70;21.80;;;;;;2269676;61;20376;-65
2021/05/05 01:12:42;0.00;0.00;0.62;0.00;0.00;0.62;1.80;1.33;;;23.70;21.80;;;;;;2269487;61;20385;-65
2021/05/05 01:15:14;0.00;0.00;0.62;0.00;0.00;0.62;2.23;1.20;;;23.70;21.80;;;;;;2268983;61;20374;-65
2021/05/05 01:17:41;0.00;0.00;0.62;0.00;0.00;0.62;2.17;1.50;;;23.60;21.70;;;;;;2269105;61;20358;-65
2021/05/05 01:20:09;0.00;0.00;0.62;0.00;0.00;0.62;1.90;1.20;;;23.60;21.70;;;;;;2269890;61;20399;-65
2021/05/05 01:22:37;0.00;0.00;0.62;0.00;0.00;0.62;1.60;1.17;;;23.60;21.70;;;;;;2269420;61;20356;-66
2021/05/05 01:25:06;0.00;0.00;0.62;0.00;0.00;0.62;1.73;1.00;;;23.60;21.70;;;;;;2269121;61;20378;-65
2021/05/05 01:27:33;0.00;0.00;0.62;0.00;0.00;0.62;1.43;1.10;;;23.60;21.70;;;;;;2269758;61;20399;-65
2021/05/05 01:30:00;0.00;0.00;0.62;0.00;0.00;0.62;1.87;1.40;;;23.60;21.70;;;;;;2269533;61;20400;-65
2021/05/05 01:32:27;0.00;0.00;0.62;0.00;0.00;0.62;2.13;1.30;;;23.60;21.70;;;;;;2269139;61;20442;-65
2021/05/05 01:34:54;0.00;0.00;0.62;0.00;0.00;0.62;2.27;1.20;;;23.60;21.80;;;;;;2269231;61;20643;-65
2021/05/05 01:37:21;0.00;0.00;0.62;0.00;0.00;0.62;2.07;0.97;;;23.60;21.70;;;;;;2268965;61;20425;-65
2021/05/05 01:39:49;0.00;0.00;0.62;0.00;0.00;0.62;2.07;1.20;;;23.60;21.70;;;;;;2272436;61;20587;-65
2021/05/05 01:42:15;0.00;0.00;0.62;0.00;0.00;0.62;2.00;1.30;;;23.50;21.60;;;;;;2269686;61;20357;-65
2021/05/05 01:44:42;0.00;0.00;0.62;0.00;0.00;0.62;1.57;1.03;;;23.50;21.60;;;;;;2268914;61;20377;-65
2021/05/05 01:47:13;0.00;0.00;0.62;0.00;0.00;0.62;1.70;1.10;;;23.50;21.60;;;;;;2269004;61;20433;-65
2021/05/05 01:49:44;0.00;0.00;0.62;0.00;0.00;0.62;2.83;1.40;;;23.50;21.60;;;;;;2269254;61;20379;-65
2021/05/05 01:55:22;0.00;0.00;0.62;0.00;0.00;0.62;1.93;1.30;;;23.50;21.60;;;;;;2391729;55;20403;-60
2021/05/05 01:57:49;0.00;0.00;0.62;0.00;0.00;0.62;1.87;1.17;;;23.50;21.60;;;;;;2257883;61;20755;-60
2021/05/05 02:00:29;0.00;0.00;0.62;0.00;0.00;0.62;2.07;1.03;;;23.50;21.60;;;;;;2257557;61;20367;-62
2021/05/05 02:03:03;0.00;0.00;0.62;0.00;0.00;0.62;2.50;1.43;;;23.40;21.60;;;;;;2252976;61;20470;-60
2021/05/05 02:05:33;0.00;0.00;0.62;0.00;0.00;0.62;1.50;1.00;;;23.40;21.60;;;;;;2257030;61;20591;-60
2021/05/05 02:08:20;0.00;0.00;0.62;0.00;0.00;0.62;1.77;1.03;;;23.40;21.60;;;;;;2255531;61;20455;-62
2021/05/05 02:10:48;0.00;0.00;0.62;0.00;0.00;0.62;1.90;1.20;;;23.40;21.60;;;;;;2256093;61;20407;-60
2021/05/05 02:13:16;0.00;0.00;0.62;0.00;0.00;0.62;1.40;1.10;;;23.40;21.60;;;;;;2253472;61;20390;-63
2021/05/05 02:15:43;0.00;0.00;0.62;0.00;0.00;0.62;1.50;1.10;;;23.40;21.60;;;;;;2257584;61;20382;-60
2021/05/05 02:18:11;0.00;0.00;0.62;0.00;0.00;0.62;1.90;1.30;;;23.40;21.80;;;;;;2256200;61;20839;-61
2021/05/05 02:20:38;0.00;0.00;0.62;0.00;0.00;0.62;3.33;1.37;;;23.40;21.70;;;;;;2253767;61;20684;-61
2021/05/05 02:23:06;0.00;0.00;0.62;0.00;0.00;0.62;2.03;0.90;;;23.40;21.70;;;;;;2253907;61;20444;-62
2021/05/05 02:25:35;0.00;0.00;0.62;0.00;0.00;0.62;1.80;1.07;;;23.40;21.60;;;;;;2256006;61;20605;-62
2021/05/05 02:28:09;0.00;0.00;0.62;0.00;0.00;0.62;2.23;1.57;;;23.40;21.70;;;;;;2257259;61;20357;-60
2021/05/05 02:31:03;0.00;0.00;0.62;0.00;0.00;0.62;2.47;1.30;;;23.30;21.60;;;;;;2256564;61;20584;-62
2021/05/05 02:33:32;0.00;0.00;0.62;0.00;0.00;0.62;2.73;1.10;;;23.30;21.60;;;;;;2253287;61;20380;-63
2021/05/05 02:35:59;0.00;0.00;0.62;0.00;0.00;0.62;1.67;1.20;;;23.30;21.60;;;;;;2253397;61;20388;-62
2021/05/05 02:38:26;0.00;0.00;0.62;0.00;0.00;0.62;1.50;1.00;;;23.30;21.70;;;;;;2256989;61;20567;-62
2021/05/05 02:40:52;0.00;0.00;0.62;0.00;0.00;0.62;1.40;0.90;;;23.30;21.70;;;;;;2253392;61;20364;-62
2021/05/05 02:43:22;0.00;0.00;0.62;0.00;0.00;0.62;2.67;1.10;;;23.30;21.80;;;;;;2256841;61;20692;-62
2021/05/05 02:45:50;0.00;0.00;0.62;0.00;0.00;0.62;1.33;1.00;;;23.30;21.80;;;;;;2256707;61;20380;-63
2021/05/05 02:48:17;0.00;0.00;0.62;0.00;0.00;0.62;3.13;1.13;;;23.30;21.80;;;;;;2257066;61;20480;-62
2021/05/05 02:50:44;0.00;0.00;0.62;0.00;0.00;0.62;1.70;1.00;;;23.20;21.80;;;;;;2256726;61;20366;-62
2021/05/05 02:53:10;0.00;0.00;0.62;0.00;0.00;0.62;1.60;1.00;;;23.20;21.80;;;;;;2256975;61;20743;-63
2021/05/05 02:55:37;0.00;0.00;0.62;0.00;0.00;0.62;2.03;1.10;;;23.20;21.80;;;;;;2252798;61;20398;-62
2021/05/05 02:58:04;0.00;0.00;0.62;0.00;0.00;0.62;3.30;1.40;;;23.20;21.80;;;;;;2256772;61;20579;-62
2021/05/05 03:00:31;0.00;0.00;0.62;0.00;0.00;0.62;2.10;1.23;;;23.20;21.80;;;;;;2257673;61;20751;-62
2021/05/05 03:02:58;0.00;0.00;0.62;0.00;0.00;0.62;2.07;1.17;;;23.20;21.80;;;;;;2252742;61;20366;-63
2021/05/05 03:05:24;0.00;0.00;0.62;0.00;0.00;0.62;2.03;1.10;;;23.20;21.80;;;;;;2257256;61;20390;-62
2021/05/05 03:07:51;0.00;0.00;0.62;0.00;0.00;0.62;1.27;0.80;;;23.20;21.90;;;;;;2257703;61;20439;-62
2021/05/05 03:10:18;0.00;0.00;0.62;0.00;0.00;0.62;2.07;0.87;;;23.20;21.90;;;;;;2256324;61;20700;-62
2021/05/05 03:12:44;0.00;0.00;0.62;0.00;0.00;0.62;1.90;1.13;;;23.20;21.90;;;;;;2257124;61;20789;-62
2021/05/05 03:15:11;0.00;0.00;0.62;0.00;0.00;0.62;1.40;1.00;;;23.20;21.90;;;;;;2257427;61;20475;-63
2021/05/05 03:17:39;0.00;0.00;0.62;0.00;0.00;0.62;2.20;1.07;;;23.20;22.10;;;;;;2256374;61;20356;-62
2021/05/05 03:20:09;0.00;0.00;0.62;0.00;0.00;0.62;1.70;1.00;;;23.20;22.00;;;;;;2257221;61;20443;-63
2021/05/05 03:22:37;0.00;0.00;0.62;0.00;0.00;0.62;2.13;1.00;;;23.20;22.00;;;;;;2257682;61;20705;-62
2021/05/05 03:25:04;0.00;0.00;0.62;0.00;0.00;0.62;1.47;0.90;;;23.20;22.00;;;;;;2256469;61;20380;-62
2021/05/05 03:27:31;0.00;0.00;0.62;0.00;0.00;0.62;1.67;1.10;;;23.10;21.90;;;;;;2257180;61;20359;-61
2021/05/05 03:29:57;0.00;0.00;0.62;0.00;0.00;0.62;1.40;0.90;;;23.20;22.00;;;;;;2257580;61;20418;-61
2021/05/05 03:32:24;0.00;0.00;0.62;0.00;0.00;0.62;1.70;1.00;;;23.10;22.00;;;;;;2256241;61;20391;-61
2021/05/05 03:34:51;0.00;0.00;0.62;0.00;0.00;0.62;1.60;1.10;;;23.10;22.00;;;;;;2257011;61;20704;-61
2021/05/05 03:37:18;0.00;0.00;0.62;0.00;0.00;0.62;1.60;0.80;;;23.10;22.00;;;;;;2257159;61;20355;-61
2021/05/05 03:39:44;0.00;0.00;0.62;0.00;0.00;0.62;1.53;0.90;;;23.10;22.00;;;;;;2256637;61;20364;-60
2021/05/05 03:42:11;0.00;0.00;0.62;0.00;0.00;0.62;1.43;0.80;;;23.10;22.00;;;;;;2257815;61;20737;-61
2021/05/05 03:44:38;0.00;0.00;0.62;0.00;0.00;0.62;1.37;0.90;;;23.10;22.10;;;;;;2258211;61;20375;-63
2021/05/05 03:47:05;0.00;0.00;0.62;0.00;0.00;0.62;1.33;0.80;;;23.10;22.20;;;;;;2256795;61;20360;-63
2021/05/05 03:49:31;0.00;0.00;0.62;0.00;0.00;0.62;1.30;0.80;;;23.10;22.20;;;;;;2258079;61;20379;-63
2021/05/05 03:51:59;0.00;0.00;0.62;0.00;0.00;0.62;1.30;0.70;;;23.10;22.20;;;;;;2257885;61;20415;-60
2021/05/05 03:54:25;0.00;0.00;0.62;0.00;0.00;0.62;1.40;0.80;;;23.10;22.20;;;;;;2256914;61;20364;-62
2021/05/05 03:56:52;0.00;0.00;0.62;0.00;0.00;0.62;2.73;0.90;;;23.10;22.20;;;;;;2257779;61;20367;-61
2021/05/05 03:59:18;0.00;0.00;0.62;0.00;0.00;0.62;2.03;0.83;;;23.10;22.30;;;;;;2258105;61;20371;-63
2021/05/05 04:01:45;0.00;0.00;0.62;0.00;0.00;0.62;1.93;1.00;;;23.10;22.30;;;;;;2257170;61;20360;-61
2021/05/05 04:04:11;0.00;0.00;0.62;0.00;0.00;0.62;1.80;1.23;;;23.10;22.30;;;;;;2257829;61;20356;-61
2021/05/05 04:06:38;0.00;0.00;0.62;0.00;0.00;0.62;1.20;0.70;;;23.10;22.30;;;;;;2258032;61;20432;-63
2021/05/05 04:09:06;0.00;0.00;0.62;0.00;0.00;0.62;1.30;0.80;;;23.00;22.10;;;;;;2257130;61;20376;-61
2021/05/05 04:11:33;0.00;0.00;0.62;0.00;0.00;0.62;1.83;0.73;;;23.10;22.20;;;;;;2257647;61;20360;-61
2021/05/05 04:13:59;0.00;0.00;0.62;0.00;0.00;0.62;1.60;0.73;;;23.10;22.20;;;;;;2257628;61;20399;-61
2021/05/05 04:16:26;0.00;0.00;0.62;0.00;0.00;0.62;1.77;0.80;;;23.10;22.20;;;;;;2257033;61;20380;-63
2021/05/05 04:18:53;0.00;0.00;0.62;0.00;0.00;0.62;1.37;0.90;;;23.00;22.20;;;;;;2257827;61;20457;-60
2021/05/05 04:21:21;0.00;0.00;0.62;0.00;0.00;0.62;1.90;0.80;;;23.00;22.70;;;;;;2257961;61;20363;-61
2021/05/05 04:23:48;0.00;0.00;0.62;0.00;0.00;0.62;2.27;0.77;;;23.10;22.20;;;;;;2256854;61;20442;-61
2021/05/05 04:26:16;0.00;0.00;0.62;0.00;0.00;0.62;1.67;0.90;;;23.10;22.30;;;;;;2257741;61;20731;-60
2021/05/05 04:28:43;0.00;0.00;0.62;0.00;0.00;0.62;1.50;0.83;;;23.00;22.20;;;;;;2254213;61;20364;-61
2021/05/05 04:31:09;0.00;0.00;0.62;0.00;0.00;0.62;2.13;0.90;;;23.00;22.20;;;;;;2256835;61;20356;-61
2021/05/05 04:33:36;0.00;0.00;0.62;0.00;0.00;0.62;3.20;1.10;;;23.00;22.20;;;;;;2257315;61;20791;-62
2021/05/05 04:36:03;0.00;0.00;0.62;0.00;0.00;0.62;1.40;0.73;;;23.00;22.20;;;;;;2257947;61;20384;-60
2021/05/05 04:38:29;0.00;0.00;0.62;0.00;0.00;0.62;2.60;1.13;;;23.00;22.20;;;;;;2256831;61;20363;-60
2021/05/05 04:40:56;0.00;0.00;0.62;0.00;0.00;0.62;1.20;0.90;;;23.00;22.20;;;;;;2257700;61;20395;-59
2021/05/05 04:43:23;0.00;0.00;0.62;0.00;0.00;0.62;2.30;1.30;;;23.00;22.20;;;;;;2258142;61;20363;-59
2021/05/05 04:45:50;0.00;0.00;0.62;0.00;0.00;0.62;1.40;0.80;;;23.00;22.10;;;;;;2256769;61;20384;-61
2021/05/05 04:48:17;0.00;0.00;0.62;0.00;0.00;0.62;1.40;0.80;;;23.00;22.10;;;;;;2257668;61;20370;-62
2021/05/05 04:50:44;0.00;0.00;0.62;0.00;0.00;0.62;2.10;1.00;;;23.00;22.10;;;;;;2257899;61;20704;-60
2021/05/05 04:53:11;0.00;0.00;0.62;0.00;0.00;0.62;2.00;1.00;;;23.00;22.10;;;;;;2256591;61;20380;-59
2021/05/05 04:55:37;0.00;0.00;0.62;0.00;0.00;0.62;1.53;0.80;;;23.00;22.10;;;;;;2257561;61;20615;-64
2021/05/05 04:58:04;0.00;0.00;0.62;0.00;0.00;0.62;1.70;0.87;;;23.00;22.10;;;;;;2257935;61;20370;-62
2021/05/05 05:00:31;0.00;0.00;0.62;0.00;0.00;0.62;1.60;0.77;;;23.00;22.20;;;;;;2256745;61;20396;-61
2021/05/05 05:02:58;0.00;0.00;0.62;0.00;0.00;0.62;1.50;1.00;;;23.00;22.30;;;;;;2257870;61;20360;-63
2021/05/05 05:05:25;0.00;0.00;0.62;0.00;0.00;0.62;1.50;1.00;;;22.90;22.30;;;;;;2257680;61;20373;-62
2021/05/05 05:07:54;0.00;0.00;0.62;0.00;0.00;0.62;2.17;1.00;;;23.00;22.30;;;;;;2256577;61;20356;-63
2021/05/05 05:10:21;0.00;0.00;0.62;0.00;0.00;0.62;1.60;1.03;;;23.00;22.40;;;;;;2257975;61;20364;-63
2021/05/05 05:12:47;0.00;0.00;0.62;0.00;0.00;0.62;1.70;1.07;;;23.00;22.40;;;;;;2257498;61;20387;-61
2021/05/05 05:15:14;0.00;0.00;0.62;0.00;0.00;0.62;1.40;1.10;;;23.00;22.40;;;;;;2256285;61;20391;-61
2021/05/05 05:17:41;0.00;0.00;0.62;0.00;0.00;0.62;1.83;1.00;;;23.00;22.40;;;;;;2257205;61;20708;-61
2021/05/05 05:20:10;0.00;0.00;0.62;0.00;0.00;0.62;3.93;1.97;;;23.00;22.30;;;;;;2257464;61;20360;-62
2021/05/05 05:22:37;0.00;0.00;0.62;0.00;0.00;0.62;2.83;1.83;;;23.00;22.40;;;;;;2256994;61;20355;-61
2021/05/05 05:25:07;0.00;0.00;0.62;0.00;0.00;0.62;3.17;1.77;;;23.00;22.30;;;;;;2257999;61;20387;-62
2021/05/05 05:27:33;0.00;0.00;0.62;0.00;0.00;0.62;3.20;2.13;;;23.00;22.30;;;;;;2257817;61;20396;-62
2021/05/05 05:30:00;0.00;0.00;0.62;0.00;0.00;0.62;2.57;2.00;;;23.00;22.30;;;;;;2257072;61;20360;-62
2021/05/05 05:32:26;0.00;0.00;0.62;0.00;0.00;0.62;3.03;2.27;;;23.00;22.20;;;;;;2258031;61;20376;-60
2021/05/05 05:34:54;0.00;0.00;0.62;0.00;0.00;0.62;3.97;2.80;;;23.00;22.20;;;;;;2257505;61;20463;-62
2021/05/05 05:37:20;0.00;0.00;0.62;0.00;0.00;0.62;3.97;2.47;;;23.00;22.20;;;;;;2257047;61;20366;-61
2021/05/05 05:39:47;0.00;0.00;0.62;0.00;0.00;0.62;3.80;2.40;;;23.00;22.20;;;;;;2258042;61;20394;-61
2021/05/05 05:42:13;0.00;0.00;0.62;0.00;0.00;0.62;3.83;2.40;;;23.00;22.20;;;;;;2257722;61;20359;-62
2021/05/05 05:44:40;0.00;0.00;0.62;0.00;0.00;0.62;5.30;2.50;;;23.00;22.20;;;;;;2256925;61;20384;-60
2021/05/05 05:47:06;0.00;0.00;0.62;0.00;0.00;0.62;2.97;2.30;;;23.00;22.20;;;;;;2257906;61;20372;-62
2021/05/05 05:49:33;0.00;0.00;0.62;0.00;0.00;0.62;5.43;2.30;;;23.00;22.20;;;;;;2257681;61;20367;-62
2021/05/05 05:52:00;0.00;0.00;0.62;0.00;0.00;0.62;4.57;2.73;;;23.00;22.20;;;;;;2256971;61;20400;-62
2021/05/05 05:54:27;0.00;0.00;0.62;0.00;0.00;0.62;2.67;2.20;;;23.00;22.30;;;;;;2257723;61;20368;-62
2021/05/05 05:56:54;0.00;0.00;0.62;0.00;0.00;0.62;3.30;2.80;;;23.00;22.30;;;;;;2257546;61;20406;-60
2021/05/05 05:59:21;0.00;0.00;0.62;0.00;0.00;0.62;3.40;2.20;;;23.00;22.20;;;;;;2257122;61;20737;-61
2021/05/05 06:01:48;0.00;0.00;0.62;0.00;0.00;0.62;3.07;2.10;;;23.00;22.20;;;;;;2257792;61;20349;-61
2021/05/05 06:04:16;0.00;0.00;0.62;0.00;0.00;0.62;3.07;1.97;;;23.00;22.20;;;;;;2257415;61;20432;-61
2021/05/05 06:06:43;0.00;0.00;0.62;0.00;0.00;0.62;3.37;2.00;;;23.00;22.20;;;;;;2257131;61;20548;-61
2021/05/05 06:09:10;0.00;0.00;0.62;0.00;0.00;0.62;3.93;2.83;;;23.00;22.20;;;;;;2257946;61;20703;-62
2021/05/05 06:11:37;0.00;0.00;0.62;0.00;0.00;0.62;2.70;2.00;;;23.00;22.20;;;;;;2253644;61;20361;-61
2021/05/05 06:14:05;0.00;0.00;0.62;0.00;0.00;0.62;3.60;2.10;;;23.00;22.20;;;;;;2256838;61;20364;-64
2021/05/05 06:16:31;0.00;0.00;0.62;0.00;0.00;0.62;2.47;1.90;;;23.00;22.20;;;;;;2257858;61;20376;-63
2021/05/05 06:18:58;0.00;0.00;0.62;0.00;0.00;0.62;4.20;2.30;;;23.00;22.30;;;;;;2257485;61;20391;-61
2021/05/05 06:21:25;0.00;0.00;0.62;0.00;0.00;0.62;3.70;2.30;;;23.00;22.30;;;;;;2257010;61;20371;-61
2021/05/05 06:23:52;0.00;0.00;0.62;0.00;0.00;0.62;2.83;1.90;;;23.00;22.30;;;;;;2257853;61;20700;-60
2021/05/05 06:26:20;0.00;0.00;0.62;0.00;0.00;0.62;1.80;1.60;;;23.00;22.30;;;;;;2257449;61;20387;-61
2021/05/05 06:28:48;0.00;0.00;0.62;0.00;0.00;0.62;2.23;1.63;;;23.00;22.20;;;;;;2256411;61;20361;-63
2021/05/05 06:31:15;0.00;0.00;0.62;0.00;0.00;0.62;3.70;2.23;;;23.00;22.30;;;;;;2257255;61;20695;-61
2021/05/05 06:33:41;0.00;0.00;0.62;0.00;0.00;0.62;2.87;1.70;;;23.00;22.20;;;;;;2257221;61;20394;-63
2021/05/05 06:36:08;0.00;0.00;0.62;0.00;0.00;0.62;5.50;2.10;;;23.00;22.20;;;;;;2256881;61;20420;-61
2021/05/05 06:38:35;0.00;0.00;0.62;0.00;0.00;0.62;3.80;1.73;;;23.00;22.20;;;;;;2257837;61;20360;-62
2021/05/05 06:41:02;0.00;0.00;0.62;0.00;0.00;0.62;1.90;1.40;;;23.00;22.30;;;;;;2257521;61;20409;-61
2021/05/05 06:43:29;0.00;0.00;0.62;0.00;0.00;0.62;2.70;1.80;;;23.00;22.20;;;;;;2253269;61;20352;-61
2021/05/05 06:45:56;0.00;0.00;0.62;0.00;0.00;0.62;3.23;2.20;;;23.00;22.20;;;;;;2257616;61;20392;-60
2021/05/05 06:48:23;0.00;0.00;0.62;0.00;0.00;0.62;2.40;1.90;;;23.10;22.30;;;;;;2257488;61;20359;-62
2021/05/05 06:50:49;0.00;0.00;0.62;0.00;0.00;0.62;2.83;1.77;;;23.00;22.20;;;;;;2257153;61;20357;-61
2021/05/05 06:53:16;0.00;0.00;0.62;0.00;0.00;0.62;3.40;1.77;;;23.00;22.70;;;;;;2257360;61;20382;-62
2021/05/05 06:55:42;0.00;0.00;0.62;0.00;0.00;0.62;2.63;1.50;;;23.00;22.10;;;;;;2257176;61;20395;-62
2021/05/05 06:58:09;0.00;0.00;0.62;0.00;0.00;0.62;2.57;1.63;;;23.00;22.20;;;;;;2257542;61;20363;-61
2021/05/05 07:00:36;0.00;0.00;0.62;0.00;0.00;0.62;2.10;1.70;;;23.00;22.20;;;;;;2257560;61;20361;-60
2021/05/05 07:03:03;0.00;0.00;0.62;0.00;0.00;0.62;2.77;1.50;;;23.00;22.20;;;;;;2257403;61;20357;-61
2021/05/05 07:05:30;0.00;0.00;0.62;0.00;0.00;0.62;2.77;1.60;;;23.10;22.20;;;;;;2257248;61;20387;-60
2021/05/05 07:07:56;0.00;0.00;0.62;0.00;0.00;0.62;2.53;1.67;;;23.10;22.30;;;;;;2257338;61;20363;-61
2021/05/05 07:10:23;0.00;0.00;0.62;0.00;0.00;0.62;2.43;1.60;;;23.00;22.20;;;;;;2257297;61;20358;-61
2021/05/05 07:12:50;0.00;0.00;0.62;0.00;0.00;0.62;3.70;1.60;;;23.00;22.20;;;;;;2256622;61;20424;-62
2021/05/05 07:15:16;0.00;0.00;0.62;0.00;0.00;0.62;1.90;1.40;;;23.00;22.20;;;;;;2257790;61;20451;-62
2021/05/05 07:17:44;0.00;0.00;0.62;0.00;0.00;0.62;2.63;1.53;;;23.00;22.20;;;;;;2258268;61;20360;-63
2021/05/05 07:20:12;0.00;0.00;0.62;0.00;0.00;0.62;2.43;1.57;;;23.00;22.20;;;;;;2254379;61;20360;-62
2021/05/05 07:22:39;0.00;0.00;0.62;0.00;0.00;0.62;2.40;1.60;;;23.00;22.20;;;;;;2258314;61;20438;-62
2021/05/05 07:25:07;0.00;0.00;0.62;0.00;0.00;0.62;1.80;1.27;;;23.10;22.80;;;;;;2257819;61;20375;-61
2021/05/05 07:27:33;0.00;0.00;0.62;0.00;0.00;0.62;1.90;1.37;;;23.00;22.20;;;;;;2258111;61;20367;-60
2021/05/05 07:30:00;0.00;0.00;0.62;0.00;0.00;0.62;2.00;1.30;;;23.00;22.20;;;;;;2257583;61;20363;-60
2021/05/05 07:32:27;0.00;0.00;0.62;0.00;0.00;0.62;2.83;1.37;;;23.00;22.20;;;;;;2257323;61;20387;-60
2021/05/05 07:34:55;0.00;0.00;0.62;0.00;0.00;0.62;1.90;1.17;;;23.00;22.20;;;;;;2257897;61;20743;-63
2021/05/05 07:45:33;0.00;0.00;0.62;0.00;0.00;0.62;2.10;1.40;;;23.10;22.20;;;;;;2258139;61;20378;-63
2021/05/05 07:48:12;0.00;0.00;0.62;0.00;0.00;0.62;2.73;1.37;;;23.10;22.20;;;;;;2258031;61;20359;-63
2021/05/05 07:50:39;0.00;0.00;0.62;0.00;0.00;0.62;1.73;1.10;;;23.10;22.30;;;;;;2257588;61;20360;-64
2021/05/05 07:53:06;0.00;0.00;0.62;0.00;0.00;0.62;1.97;1.33;;;23.10;22.20;;;;;;2258127;61;20384;-61
2021/05/05 07:55:33;0.00;0.00;0.62;0.00;0.00;0.62;2.33;1.43;;;23.10;22.20;;;;;;2257822;61;20433;-61
2021/05/05 07:57:59;0.00;0.00;0.62;0.00;0.00;0.62;1.70;1.00;;;23.10;22.20;;;;;;2257498;61;20360;-62
2021/05/05 08:00:26;0.00;0.00;0.62;0.00;0.00;0.62;2.13;1.10;;;23.10;22.10;;;;;;2258146;61;20370;-63
2021/05/05 08:02:52;0.00;0.00;0.62;0.00;0.00;0.62;1.93;1.27;;;23.10;22.10;;;;;;2258110;61;20349;-63
2021/05/05 08:05:19;0.00;0.00;0.62;0.00;0.00;0.62;2.97;1.50;;;23.10;22.20;;;;;;2257360;61;20704;-63
2021/05/05 08:07:50;0.00;0.00;0.62;0.00;0.00;0.62;2.00;1.07;;;23.10;22.20;;;;;;2258290;61;20363;-63
2021/05/05 08:10:16;0.00;0.00;0.62;0.00;0.00;0.62;2.70;1.60;;;23.10;22.20;;;;;;2258018;61;20406;-63
2021/05/05 08:12:43;0.00;0.00;0.62;0.00;0.00;0.62;2.37;1.57;;;23.10;22.20;;;;;;2256897;61;20380;-62
2021/05/05 08:15:12;0.00;0.00;0.62;0.00;0.00;0.62;1.40;1.10;;;23.20;22.20;;;;;;2258210;61;20379;-63
2021/05/05 08:17:39;0.00;0.00;0.62;0.00;0.00;0.62;1.80;1.00;;;23.20;22.20;;;;;;2258129;61;20392;-63
2021/05/05 08:20:06;0.00;0.00;0.62;0.00;0.00;0.62;2.03;1.03;;;23.20;22.20;;;;;;2257408;61;20418;-62
2021/05/05 08:22:34;0.00;0.00;0.62;0.00;0.00;0.62;2.20;1.10;;;23.20;22.10;;;;;;2258134;61;20707;-62
2021/05/05 08:25:03;0.00;0.00;0.62;0.00;0.00;0.62;2.37;1.33;;;23.20;22.00;;;;;;2257838;61;20433;-61
2021/05/05 08:27:29;0.00;0.00;0.62;0.00;0.00;0.62;3.77;1.60;;;23.20;22.00;;;;;;2257349;61;20364;-62
2021/05/05 08:29:56;0.00;0.00;0.62;0.00;0.00;0.62;1.80;1.10;;;23.20;22.00;;;;;;2258044;61;20356;-61
2021/05/05 08:32:22;0.00;0.00;0.62;0.00;0.00;0.62;2.17;1.07;;;23.20;22.00;;;;;;2257900;61;20390;-61
2021/05/05 08:34:49;0.00;0.00;0.62;0.00;0.00;0.62;1.70;1.03;;;23.20;22.00;;;;;;2257160;61;20418;-62
2021/05/05 08:37:15;0.00;0.00;0.62;0.00;0.00;0.62;1.97;1.00;;;23.20;22.00;;;;;;2258196;61;20372;-61
2021/05/05 08:39:42;0.00;0.00;0.62;0.00;0.00;0.62;2.37;1.30;;;23.20;22.00;;;;;;2258000;61;20353;-61
2021/05/05 08:42:09;0.00;0.00;0.62;0.00;0.00;0.62;2.20;1.23;;;23.20;22.00;;;;;;2257297;61;20353;-62
2021/05/05 08:44:36;0.00;0.00;0.62;0.00;0.00;0.62;1.40;0.77;;;23.30;22.10;;;;;;2258028;61;20492;-61
2021/05/05 08:47:03;0.00;0.00;0.62;0.00;0.00;0.62;1.90;1.13;;;23.30;22.10;;;;;;2254141;61;20465;-62
2021/05/05 08:49:32;0.00;0.00;0.62;0.00;0.00;0.62;2.67;1.03;;;23.30;22.00;;;;;;2257267;61;20696;-61
2021/05/05 08:52:00;0.00;0.00;0.62;0.00;0.00;0.62;1.70;0.97;;;23.30;22.00;;;;;;2257988;61;20360;-61
2021/05/05 08:54:27;0.00;0.00;0.62;0.00;0.00;0.62;2.97;2.00;;;23.30;22.00;;;;;;2257713;61;20360;-64
2021/05/05 08:56:54;0.00;0.00;0.62;0.00;0.00;0.62;2.50;1.20;;;23.30;22.00;;;;;;2257100;61;20375;-62
2021/05/05 08:59:22;0.00;0.00;0.62;0.00;0.00;0.62;1.70;1.03;;;23.30;22.10;;;;;;2257670;61;20360;-63
2021/05/05 09:01:49;0.00;0.00;0.62;0.00;0.00;0.62;1.80;0.80;;;23.30;22.00;;;;;;2257858;61;20439;-64
2021/05/05 09:04:15;0.00;0.00;0.62;0.00;0.00;0.62;1.63;1.10;;;23.30;22.00;;;;;;2253339;61;20364;-63
2021/05/05 09:06:51;0.00;0.00;0.62;0.00;0.00;0.62;2.60;1.40;;;23.30;22.00;;;;;;2258136;61;20367;-63
2021/05/05 09:09:40;0.00;0.00;0.62;0.00;0.00;0.62;1.67;1.00;;;23.30;22.00;;;;;;2257733;61;20383;-64
2021/05/05 09:12:19;0.00;0.00;0.62;0.00;0.00;0.62;2.90;1.20;;;23.30;22.00;;;;;;2257010;61;20367;-63
2021/05/05 09:14:52;0.00;0.00;0.62;0.00;0.00;0.62;1.80;1.20;;;23.40;22.10;;;;;;2257690;61;20420;-63
2021/05/05 09:17:20;0.00;0.00;0.62;0.00;0.00;0.62;1.63;1.00;;;23.40;22.20;;;;;;2258172;61;20400;-64
2021/05/05 09:19:47;0.00;0.00;0.62;0.00;0.00;0.62;2.10;1.20;;;23.40;22.10;;;;;;2257158;61;20363;-61
2021/05/05 09:22:37;0.00;0.00;0.62;0.00;0.00;0.62;1.50;0.90;;;23.40;22.10;;;;;;2257812;61;20359;-61
2021/05/05 09:25:06;0.00;0.00;0.62;0.00;0.00;0.62;1.40;0.80;;;23.40;22.10;;;;;;2257865;61;20631;-63
2021/05/05 09:27:34;0.00;0.00;0.62;0.00;0.00;0.62;1.70;0.90;;;23.40;22.00;;;;;;2257312;61;20709;-61
2021/05/05 09:30:05;0.00;0.00;0.62;0.00;0.00;0.62;1.93;1.23;;;23.40;22.00;;;;;;2257581;61;20356;-61
2021/05/05 09:32:51;0.00;0.00;0.62;0.00;0.00;0.62;2.23;1.20;;;23.40;22.00;;;;;;2257820;61;20388;-64
2021/05/05 09:35:19;0.00;0.00;0.62;0.00;0.00;0.62;1.97;1.10;;;23.40;22.00;;;;;;2257364;61;20407;-62
2021/05/05 09:37:57;0.00;0.00;0.62;0.00;0.00;0.62;1.90;0.90;;;23.50;22.00;;;;;;2257663;61;20356;-63
2021/05/05 09:40:24;0.00;0.00;0.62;0.00;0.00;0.62;1.80;0.93;;;23.50;22.00;;;;;;2257603;61;20367;-61
2021/05/05 09:42:51;0.00;0.00;0.62;0.00;0.00;0.62;1.90;1.10;;;23.50;22.00;;;;;;2257618;61;20357;-61
2021/05/05 09:45:19;0.00;0.00;0.62;0.00;0.00;0.62;3.10;1.10;;;23.50;22.00;;;;;;2257421;61;20380;-60
2021/05/05 09:47:50;0.00;0.00;0.62;0.00;0.00;0.62;1.60;1.00;;;23.50;22.00;;;;;;2257602;61;20360;-61
2021/05/05 09:50:28;0.00;0.00;0.62;0.00;0.00;0.62;2.20;1.10;;;23.50;21.90;;;;;;2257538;61;20357;-61
2021/05/05 09:53:16;0.00;0.00;0.62;0.00;0.00;0.62;1.87;1.10;;;23.50;21.90;;;;;;2257390;61;20392;-64
2021/05/05 09:55:44;0.00;0.00;0.62;0.00;0.00;0.62;1.80;0.83;;;23.60;22.00;;;;;;2257351;61;20388;-62